Time;durP1;ratioP1;P1;durP2;ratioP2;P2;SDS_P1;SDS_P2;PMS_P1;PMS_P2;Temp;Humidity;BMP_temperature;BMP_pressure;BME280_temperature;BME280_humidity;BME280_pressure;Samples;Min_cycle;Max_cycle;Signal;HPM_P1;HPM_P2
2021/01/14 00:00:29;;;;;;;27.49;14.29;;;;;;;-1.92;68.19;97886.27;360521;111;1961966;-73
2021/01/14 00:01:35;;;;;;;26.67;15.42;;;;;;;-1.93;68.16;97884.63;352758;115;1961950;-71
2021/01/14 00:02:41;;;;;;;26.54;14.77;;;;;;;-1.93;68.18;97889.08;356343;113;1961970;-71
2021/01/14 00:03:46;;;;;;;23.68;13.68;;;;;;;-1.93;68.17;97889.92;335909;113;2227913;-72
2021/01/14 00:04:53;;;;;;;26.70;14.81;;;;;;;-1.92;68.18;97880.16;362998;111;1961909;-72
2021/01/14 00:05:58;;;;;;;24.33;14.42;;;;;;;-1.92;68.12;97882.81;353016;113;1961888;-72
2021/01/14 00:07:03;;;;;;;23.14;13.32;;;;;;;-1.91;68.23;97873.86;354381;113;1962989;-72
2021/01/14 00:08:10;;;;;;;25.25;14.72;;;;;;;-1.91;68.33;97872.03;331779;111;2525973;-72
2021/01/14 00:09:15;;;;;;;25.87;15.17;;;;;;;-1.89;68.28;97872.70;358760;113;1962932;-72
2021/01/14 00:10:31;;;;;;;25.19;14.26;;;;;;;-1.88;68.18;97873.52;358374;113;1962018;-72
2021/01/14 00:11:37;;;;;;;25.94;15.67;;;;;;;-1.88;68.05;97873.52;346542;114;1961993;-72
2021/01/14 00:12:43;;;;;;;27.04;14.59;;;;;;;-1.87;68.02;97873.36;321231;113;1990789;-72
2021/01/14 00:13:48;;;;;;;26.04;15.03;;;;;;;-1.87;68.07;97873.36;343619;116;1961938;-71
2021/01/14 00:14:54;;;;;;;26.46;15.74;;;;;;;-1.86;68.12;97869.70;350156;114;1964978;-72
2021/01/14 00:16:00;;;;;;;29.63;15.46;;;;;;;-1.82;68.15;97883.44;333123;114;2317001;-72
2021/01/14 00:17:05;;;;;;;27.68;16.32;;;;;;;-1.82;68.07;97880.80;323136;118;1961999;-72
2021/01/14 00:18:12;;;;;;;26.51;15.79;;;;;;;-1.82;67.89;97876.31;342878;116;1963017;-72
2021/01/14 00:19:18;;;;;;;29.69;16.37;;;;;;;-1.82;67.85;97880.80;317667;116;2670971;-71
2021/01/14 00:20:27;;;;;;;25.96;16.38;;;;;;;-1.82;67.93;97881.61;350594;114;1961932;-71
2021/01/14 00:21:41;;;;;;;32.51;18.11;;;;;;;-1.81;67.95;97882.43;332572;116;1962975;-71
2021/01/14 00:22:46;;;;;;;27.23;14.76;;;;;;;-1.82;67.93;97878.97;328162;114;2429973;-71
2021/01/14 00:23:52;;;;;;;26.36;15.30;;;;;;;-1.85;67.95;97868.73;351170;113;1962932;-72
2021/01/14 00:24:57;;;;;;;29.33;15.20;;;;;;;-1.83;67.90;97868.53;350490;113;1962981;-72
2021/01/14 00:26:03;;;;;;;26.03;15.89;;;;;;;-1.84;67.79;97869.55;343348;116;1961980;-72
2021/01/14 00:27:09;;;;;;;23.98;13.91;;;;;;;-1.88;67.80;97873.52;323875;116;2416032;-72
2021/01/14 00:28:14;;;;;;;24.49;14.78;;;;;;;-1.91;67.79;97872.03;345326;116;1961924;-72
2021/01/14 00:29:20;;;;;;;28.18;16.40;;;;;;;-1.91;67.91;97871.22;347257;114;1962011;-72
2021/01/14 00:30:29;;;;;;;27.26;15.02;;;;;;;-1.94;67.93;97879.50;351308;114;1961934;-72
2021/01/14 00:31:35;;;;;;;27.95;14.49;;;;;;;-1.97;68.10;97880.66;351393;116;1962000;-72
2021/01/14 00:32:41;;;;;;;26.02;15.46;;;;;;;-1.99;68.11;97874.70;336149;116;2295996;-72
2021/01/14 00:33:46;;;;;;;25.84;14.79;;;;;;;-2.01;68.13;97872.25;345629;115;1961947;-72
2021/01/14 00:34:52;;;;;;;30.43;16.04;;;;;;;-2.02;68.24;97875.05;346351;115;1962016;-72
2021/01/14 00:35:57;;;;;;;27.64;15.00;;;;;;;-2.03;68.29;97868.94;349201;115;1961967;-72
2021/01/14 00:38:32;;;;;;;31.37;16.82;;;;;;;-2.03;68.33;97876.06;335662;116;2197011;-72
2021/01/14 00:39:38;;;;;;;29.54;15.66;;;;;;;-2.04;68.41;97874.39;346664;114;1962018;-72
2021/01/14 00:40:45;;;;;;;27.49;16.16;;;;;;;-2.06;68.42;97869.29;352720;114;1962037;-71
2021/01/14 00:41:51;;;;;;;27.15;16.86;;;;;;;-2.06;68.57;97877.22;304731;117;2703971;-71
2021/01/14 00:43:05;;;;;;;27.49;15.56;;;;;;;-2.07;68.49;97874.73;350013;114;1963966;-71
2021/01/14 00:44:10;;;;;;;26.34;15.39;;;;;;;-2.07;68.62;97874.73;347357;116;1962014;-72
2021/01/14 00:45:16;;;;;;;27.88;15.17;;;;;;;-2.07;68.60;97872.09;350774;114;1964016;-71
2021/01/14 00:46:22;;;;;;;28.71;15.38;;;;;;;-2.08;68.55;97871.27;349454;115;1961974;-71
2021/01/14 00:47:35;;;;;;;28.21;15.07;;;;;;;-2.08;68.51;97868.63;322853;114;2565998;-72
2021/01/14 00:48:40;;;;;;;27.18;17.08;;;;;;;-2.07;68.55;97869.45;349579;114;1961918;-72
2021/01/14 00:49:46;;;;;;;26.93;15.62;;;;;;;-2.08;68.67;97868.63;313609;114;2728005;-72
2021/01/14 00:50:52;;;;;;;27.20;16.26;;;;;;;-2.09;68.75;97864.34;350736;116;1963995;-72
2021/01/14 00:51:57;;;;;;;27.81;16.36;;;;;;;-2.08;68.83;97860.69;350371;114;1961985;-72
2021/01/14 00:53:03;;;;;;;27.82;16.38;;;;;;;-2.08;68.82;97868.63;353183;114;1962069;-71
2021/01/14 00:54:09;;;;;;;27.79;16.63;;;;;;;-2.06;68.82;97869.29;317766;114;2702866;-72
2021/01/14 00:55:15;;;;;;;25.94;15.53;;;;;;;-2.06;69.01;97864.00;348895;116;1963934;-72
2021/01/14 00:56:25;;;;;;;30.58;17.69;;;;;;;-2.04;68.85;97869.95;350732;114;1962010;-72
2021/01/14 00:57:34;;;;;;;28.64;15.45;;;;;;;-2.03;68.85;97861.01;351702;114;1961929;-72
2021/01/14 00:58:40;;;;;;;28.89;15.74;;;;;;;-2.01;68.74;97860.85;350690;114;1962028;-73
2021/01/14 00:59:46;;;;;;;28.52;16.95;;;;;;;-2.01;68.65;97861.67;318624;114;2008941;-71
2021/01/14 01:00:51;;;;;;;29.08;16.44;;;;;;;-2.02;68.65;97867.94;350465;116;1962015;-71
2021/01/14 01:01:57;;;;;;;30.77;16.81;;;;;;;-2.00;68.94;97867.78;350576;116;1962006;-71
2021/01/14 01:03:03;;;;;;;29.03;17.12;;;;;;;-2.00;68.89;97871.25;351101;114;1964014;-71
2021/01/14 01:04:10;;;;;;;31.47;17.06;;;;;;;-2.00;68.82;97873.89;333361;114;2351997;-71
2021/01/14 01:05:16;;;;;;;31.92;17.72;;;;;;;-1.98;68.83;97873.73;351203;114;1963939;-72
2021/01/14 01:06:23;;;;;;;30.43;16.81;;;;;;;-1.97;68.93;97867.44;321538;114;2239946;-72
2021/01/14 01:07:29;;;;;;;31.96;17.04;;;;;;;-1.97;68.93;97867.44;350747;116;1962927;-71
2021/01/14 01:08:34;;;;;;;28.51;16.73;;;;;;;-1.98;68.96;97868.44;350366;116;1962029;-73
2021/01/14 01:09:40;;;;;;;32.69;16.70;;;;;;;-1.97;68.90;97870.08;321153;116;2600936;-72
2021/01/14 01:10:47;;;;;;;26.71;16.64;;;;;;;-1.96;68.94;97871.72;350791;116;1962026;-71
2021/01/14 01:11:53;;;;;;;31.07;16.31;;;;;;;-1.95;68.88;97862.80;348822;114;1962037;-71
2021/01/14 01:12:58;;;;;;;28.96;16.84;;;;;;;-1.95;68.93;97869.92;328911;114;2443000;-71
2021/01/14 01:14:05;;;;;;;28.79;16.47;;;;;;;-1.95;69.02;97867.28;349436;116;1961908;-71
2021/01/14 01:15:11;;;;;;;29.84;16.23;;;;;;;-1.94;69.00;97872.38;350799;116;1961946;-71
2021/01/14 01:16:18;;;;;;;26.96;16.67;;;;;;;-1.92;69.07;97873.05;324279;114;1961979;-71
2021/01/14 01:17:23;;;;;;;28.14;16.77;;;;;;;-1.90;69.08;97875.53;351667;115;1962990;-71
2021/01/14 01:18:29;;;;;;;32.40;16.30;;;;;;;-1.87;68.96;97872.54;351235;115;1963911;-71
2021/01/14 01:19:34;;;;;;;31.17;17.29;;;;;;;-1.87;68.93;97875.19;319839;116;2616042;-71
2021/01/14 01:20:40;;;;;;;28.99;16.63;;;;;;;-1.86;68.98;97876.82;351173;116;1961911;-71
2021/01/14 01:21:45;;;;;;;30.82;17.71;;;;;;;-1.85;68.92;97876.66;350481;114;1962006;-73
2021/01/14 01:22:51;;;;;;;28.48;16.54;;;;;;;-1.85;68.87;97876.66;351232;114;1961964;-72
2021/01/14 01:23:57;;;;;;;29.52;17.46;;;;;;;-1.83;68.80;97876.47;325537;114;2495941;-71
2021/01/14 01:25:03;;;;;;;30.06;17.29;;;;;;;-1.81;68.84;97874.48;323888;114;1964020;-71
2021/01/14 01:26:15;;;;;;;32.74;18.45;;;;;;;-1.82;68.92;97868.38;351202;116;1961930;-71
2021/01/14 01:27:20;;;;;;;29.34;16.48;;;;;;;-1.81;68.86;97870.02;314078;114;2086044;-71
2021/01/14 01:28:26;;;;;;;30.09;17.02;;;;;;;-1.80;68.93;97873.48;350899;114;1962967;-72
2021/01/14 01:29:31;;;;;;;30.64;18.74;;;;;;;-1.79;68.96;97873.32;348973;116;1962044;-71
2021/01/14 01:30:38;;;;;;;34.22;18.43;;;;;;;-1.80;68.91;97869.04;334107;114;2864977;-71
2021/01/14 01:31:43;;;;;;;32.93;19.16;;;;;;;-1.78;68.83;97874.96;325109;116;1961967;-71
2021/01/14 01:32:48;;;;;;;34.87;18.95;;;;;;;-1.77;68.96;97873.16;351119;114;1962008;-71
2021/01/14 01:33:54;;;;;;;32.07;18.21;;;;;;;-1.77;68.99;97867.87;348384;116;1963038;-71
2021/01/14 01:35:00;;;;;;;30.97;18.92;;;;;;;-1.78;68.96;97871.50;347957;114;1961920;-71
2021/01/14 01:36:07;;;;;;;31.88;19.00;;;;;;;-1.77;69.00;97862.58;317990;114;2213957;-72
2021/01/14 01:37:13;;;;;;;31.32;17.99;;;;;;;-1.74;68.95;97874.64;351954;114;1962006;-71
2021/01/14 01:38:19;;;;;;;32.99;18.31;;;;;;;-1.76;69.00;97869.51;320993;114;2629011;-72
2021/01/14 01:39:25;;;;;;;31.78;20.08;;;;;;;-1.74;68.96;97874.64;349443;116;1962956;-71
2021/01/14 01:40:31;;;;;;;32.31;19.38;;;;;;;-1.75;69.07;97870.33;352705;114;1961885;-71
2021/01/14 01:41:37;;;;;;;30.24;17.92;;;;;;;-1.75;69.04;97887.03;326678;116;2880990;-72
2021/01/14 01:42:42;;;;;;;27.64;16.77;;;;;;;-1.75;69.08;97886.21;328665;114;1962029;-71
2021/01/14 01:43:49;;;;;;;29.06;17.29;;;;;;;-1.74;69.05;97882.59;348567;116;1961994;-71
2021/01/14 01:45:00;;;;;;;25.47;15.71;;;;;;;-1.74;69.17;97883.41;317154;114;2679064;-71
2021/01/14 01:46:05;;;;;;;28.24;16.62;;;;;;;-1.74;69.26;97886.05;351028;114;1962121;-71
2021/01/14 01:47:11;;;;;;;31.90;17.44;;;;;;;-1.74;69.31;97878.11;331954;116;1961958;-71
2021/01/14 01:48:20;;;;;;;25.34;14.98;;;;;;;-1.73;69.34;97887.69;348452;115;1961935;-72
2021/01/14 01:49:26;;;;;;;25.98;15.02;;;;;;;-1.72;68.85;97884.06;350839;114;1961977;-71
2021/01/14 01:50:33;;;;;;;27.58;15.48;;;;;;;-1.72;68.83;97883.22;310176;114;2149379;-71
2021/01/14 01:51:41;;;;;;;24.90;14.91;;;;;;;-1.72;68.83;97883.22;349268;114;1961883;-71
2021/01/14 01:52:49;;;;;;;23.22;13.46;;;;;;;-1.72;68.83;97883.22;329343;115;2371894;-72
2021/01/14 01:53:56;;;;;;;27.12;15.29;;;;;;;-1.73;68.81;97885.04;343002;116;2867022;-71
2021/01/14 01:55:04;;;;;;;23.74;13.86;;;;;;;-1.73;68.91;97879.75;350664;114;1962960;-71
2021/01/14 01:56:10;;;;;;;23.36;13.99;;;;;;;-1.72;68.79;97876.13;343770;116;1961999;-72
2021/01/14 01:57:16;;;;;;;26.94;15.09;;;;;;;-1.71;68.74;97876.94;346765;116;1962055;-72
2021/01/14 01:58:22;;;;;;;26.33;14.46;;;;;;;-1.70;68.81;97879.41;349013;114;1961925;-72
2021/01/14 01:59:30;;;;;;;27.88;15.29;;;;;;;-1.71;68.70;97875.11;310246;114;2229965;-72
2021/01/14 02:00:38;;;;;;;26.23;14.71;;;;;;;-1.73;68.89;97871.81;319073;114;2202940;-71
2021/01/14 02:01:45;;;;;;;27.20;15.68;;;;;;;-1.73;68.95;97877.10;352792;114;1961977;-71
2021/01/14 02:02:52;;;;;;;24.52;14.69;;;;;;;-1.72;68.88;97878.77;326065;115;2507961;-72
2021/01/14 02:03:57;;;;;;;25.26;15.04;;;;;;;-1.71;68.87;97869.82;351512;114;1961951;-71
2021/01/14 02:05:04;;;;;;;24.09;14.38;;;;;;;-1.70;68.86;97870.64;343567;116;1962049;-71
2021/01/14 02:06:10;;;;;;;26.13;15.46;;;;;;;-1.71;68.93;97875.11;346161;114;1962030;-72
2021/01/14 02:07:21;;;;;;;26.47;16.31;;;;;;;-1.70;68.95;97873.28;351266;113;1962042;-71
2021/01/14 02:08:51;;;;;;;23.16;13.92;;;;;;;-1.71;68.92;97875.11;346071;115;1961952;-71
2021/01/14 02:09:57;;;;;;;27.29;15.16;;;;;;;-1.70;68.71;97873.28;320675;114;2607011;-72
2021/01/14 02:11:06;;;;;;;28.14;15.23;;;;;;;-1.70;68.88;97874.11;350146;114;1961941;-72
2021/01/14 02:12:13;;;;;;;25.55;13.55;;;;;;;-1.71;68.86;97875.11;357977;111;1961931;-72
2021/01/14 02:13:31;;;;;;;25.77;15.09;;;;;;;-1.71;68.81;97880.41;363794;109;1961986;-72
2021/01/14 02:14:38;;;;;;;23.32;13.86;;;;;;;-1.70;68.72;97881.23;367768;109;1962065;-72
2021/01/14 02:15:45;;;;;;;23.75;13.29;;;;;;;-1.68;68.79;97885.36;348915;109;2201125;-72
2021/01/14 02:16:53;;;;;;;22.23;13.90;;;;;;;-1.67;68.86;97884.34;368303;109;1960799;-72
2021/01/14 02:18:00;;;;;;;22.90;12.92;;;;;;;-1.64;68.71;97891.13;369845;108;1962964;-72
2021/01/14 02:19:09;;;;;;;21.42;12.58;;;;;;;-1.65;68.50;97881.54;368934;109;1961984;-72
2021/01/14 02:20:17;;;;;;;24.85;14.09;;;;;;;-1.63;68.49;97890.96;343373;109;1962994;-71
2021/01/14 02:21:25;;;;;;;22.22;13.38;;;;;;;-1.63;68.53;97892.79;371047;109;1960974;-71
2021/01/14 02:22:37;;;;;;;22.97;13.39;;;;;;;-1.63;68.50;97882.20;321569;107;2236423;-70
2021/01/14 02:24:05;;;;;;;23.18;12.45;;;;;;;-1.65;68.62;97881.54;373741;107;1960959;-72
2021/01/14 02:25:13;;;;;;;23.76;13.67;;;;;;;-1.66;68.70;97885.20;369161;109;1960752;-72
2021/01/14 02:26:25;;;;;;;22.77;12.80;;;;;;;-1.64;68.61;97889.33;363815;112;1960777;-72
2021/01/14 02:27:33;;;;;;;22.21;13.54;;;;;;;-1.63;68.52;97892.79;365361;108;1960870;-72
2021/01/14 02:28:40;;;;;;;23.92;13.34;;;;;;;-1.63;68.63;97890.14;366105;107;1963866;-71
2021/01/14 02:29:47;;;;;;;22.86;14.16;;;;;;;-1.64;68.53;97894.62;340123;104;2594866;-72
2021/01/14 02:30:53;;;;;;;24.87;15.02;;;;;;;-1.63;68.60;97890.14;376628;106;1962041;-71
2021/01/14 02:31:59;;;;;;;23.97;14.09;;;;;;;-1.64;68.59;97893.77;373930;105;1964016;-71
2021/01/14 02:33:04;;;;;;;23.91;13.92;;;;;;;-1.62;68.61;97897.08;332129;105;2126412;-71
2021/01/14 02:34:10;;;;;;;25.04;14.74;;;;;;;-1.61;68.57;97896.09;371773;106;1963003;-72
2021/01/14 02:35:15;;;;;;;28.22;15.66;;;;;;;-1.61;68.58;97890.80;374286;108;1961968;-72
2021/01/14 02:36:24;;;;;;;24.09;13.78;;;;;;;-1.63;68.49;97890.96;348059;107;2498947;-71
2021/01/14 02:37:30;;;;;;;25.64;14.35;;;;;;;-1.63;68.46;97888.31;375260;106;1962052;-71
2021/01/14 02:38:37;;;;;;;23.06;14.11;;;;;;;-1.62;68.56;97883.84;351989;106;2418919;-72
2021/01/14 02:39:42;;;;;;;24.03;14.13;;;;;;;-1.61;68.53;97882.86;376221;107;1961911;-72
2021/01/14 02:40:49;;;;;;;26.03;14.38;;;;;;;-1.60;68.43;97879.20;374860;108;1961963;-71
2021/01/14 02:41:54;;;;;;;25.86;14.24;;;;;;;-1.57;68.48;97886.80;347311;111;2344930;-70
2021/01/14 02:43:00;;;;;;;26.16;16.13;;;;;;;-1.55;68.44;97888.27;369991;110;1961876;-71
2021/01/14 02:44:05;;;;;;;24.17;14.53;;;;;;;-1.53;68.39;97881.97;372024;108;1961952;-71
2021/01/14 02:45:13;;;;;;;22.71;13.72;;;;;;;-1.53;68.35;97876.67;375158;107;1961035;-71
2021/01/14 02:46:21;;;;;;;23.52;14.08;;;;;;;-1.51;68.36;97879.98;374529;106;1962948;-72
2021/01/14 02:47:36;;;;;;;25.17;13.86;;;;;;;-1.48;68.34;97879.63;321236;109;2231415;-71
2021/01/14 02:48:47;;;;;;;25.18;16.08;;;;;;;-1.47;68.33;97876.82;322787;107;2223108;-72
2021/01/14 02:50:00;;;;;;;23.23;14.72;;;;;;;-1.45;68.21;97874.02;367359;109;1963992;-71
2021/01/14 02:51:09;;;;;;;23.39;12.68;;;;;;;-1.45;68.23;97872.19;366914;107;1961016;-71
2021/01/14 02:52:16;;;;;;;24.66;13.78;;;;;;;-1.44;68.21;97859.77;364898;109;1961962;-71
2021/01/14 02:53:23;;;;;;;24.42;12.92;;;;;;;-1.43;68.24;97866.69;369907;109;1962952;-72
2021/01/14 02:54:30;;;;;;;21.79;13.25;;;;;;;-1.41;68.27;97862.05;338486;109;1961960;-72
2021/01/14 02:55:38;;;;;;;24.17;14.91;;;;;;;-1.41;68.12;97862.88;364596;111;1962003;-72
2021/01/14 02:56:49;;;;;;;24.93;14.14;;;;;;;-1.42;68.04;97869.18;367369;109;1961891;-72
2021/01/14 02:57:55;;;;;;;23.09;13.63;;;;;;;-1.42;68.09;97861.23;366816;109;1961958;-72
2021/01/14 02:59:05;;;;;;;24.03;14.00;;;;;;;-1.43;68.04;97864.05;330572;107;2036770;-71
2021/01/14 03:00:12;;;;;;;23.04;13.34;;;;;;;-1.44;68.03;97862.41;346793;109;1962747;-73
2021/01/14 03:01:18;;;;;;;24.04;13.76;;;;;;;-1.43;68.03;97862.25;365432;109;1962997;-73
2021/01/14 03:02:24;;;;;;;23.16;13.91;;;;;;;-1.42;67.98;97865.72;339452;109;1962988;-72
2021/01/14 03:03:29;;;;;;;24.76;13.45;;;;;;;-1.41;68.05;97867.36;369418;107;1961921;-71
2021/01/14 03:04:34;;;;;;;20.71;13.26;;;;;;;-1.43;67.92;97864.89;366581;107;1961942;-71
2021/01/14 03:05:40;;;;;;;23.00;13.61;;;;;;;-1.41;68.01;97864.70;365899;109;1961937;-72
2021/01/14 03:06:47;;;;;;;19.99;12.18;;;;;;;-1.41;68.04;97857.58;368078;109;1962072;-71
2021/01/14 03:07:55;;;;;;;23.04;13.42;;;;;;;-1.40;68.04;97864.55;366168;109;1963885;-71
2021/01/14 03:09:01;;;;;;;22.58;14.22;;;;;;;-1.38;67.96;97861.70;359066;107;1963987;-71
2021/01/14 03:10:07;;;;;;;19.94;12.58;;;;;;;-1.37;67.93;97864.19;366856;107;1963950;-72
2021/01/14 03:11:14;;;;;;;20.85;12.87;;;;;;;-1.37;67.84;97871.31;326549;107;2937988;-72
2021/01/14 03:12:19;;;;;;;26.48;13.46;;;;;;;-1.39;67.80;97870.66;368411;109;1961935;-72
2021/01/14 03:13:24;;;;;;;24.23;13.66;;;;;;;-1.40;67.89;97871.67;369482;107;1962015;-71
2021/01/14 03:14:30;;;;;;;22.97;12.83;;;;;;;-1.41;68.02;97867.36;370671;109;1961944;-71
2021/01/14 03:15:36;;;;;;;24.57;14.34;;;;;;;-1.41;68.09;97868.17;337872;109;2578967;-71
2021/01/14 03:16:42;;;;;;;22.63;13.35;;;;;;;-1.41;68.11;97857.58;365145;109;1961942;-71
2021/01/14 03:17:47;;;;;;;23.61;13.73;;;;;;;-1.41;68.15;97862.88;365936;107;1961998;-71
2021/01/14 03:18:53;;;;;;;26.58;14.11;;;;;;;-1.40;68.11;97858.43;367991;107;1962014;-72
2021/01/14 03:19:58;;;;;;;23.16;13.93;;;;;;;-1.39;68.10;97868.02;349386;109;2297010;-72
2021/01/14 03:21:04;;;;;;;24.28;15.08;;;;;;;-1.40;68.05;97869.84;368077;109;1964913;-71
2021/01/14 03:22:10;;;;;;;23.28;13.37;;;;;;;-1.40;68.08;97867.19;365424;109;1961921;-73
2021/01/14 03:23:16;;;;;;;21.59;13.34;;;;;;;-1.38;68.10;97867.00;366280;107;1962006;-72
2021/01/14 03:24:21;;;;;;;23.34;13.82;;;;;;;-1.37;68.12;97866.84;340879;109;2527133;-72
2021/01/14 03:25:26;;;;;;;23.53;13.81;;;;;;;-1.37;68.03;97868.67;341399;107;1964021;-71
2021/01/14 03:26:36;;;;;;;23.75;14.19;;;;;;;-1.38;67.92;97867.00;366106;109;1961960;-72
2021/01/14 03:27:43;;;;;;;23.36;14.32;;;;;;;-1.40;67.98;97869.02;367881;109;1963126;-71
2021/01/14 03:28:50;;;;;;;24.20;14.15;;;;;;;-1.41;67.97;97870.82;328484;107;2782001;-70
2021/01/14 03:29:55;;;;;;;22.86;13.13;;;;;;;-1.42;67.94;97866.53;366028;107;1962009;-72
2021/01/14 03:31:00;;;;;;;22.62;13.29;;;;;;;-1.42;67.94;97868.36;369369;109;1965996;-72
2021/01/14 03:32:06;;;;;;;23.14;14.64;;;;;;;-1.43;67.90;97866.69;368826;109;1962012;-72
2021/01/14 03:33:12;;;;;;;23.93;13.62;;;;;;;-1.45;68.03;97863.42;342515;107;2228000;-71
2021/01/14 03:34:17;;;;;;;26.92;15.45;;;;;;;-1.45;68.04;97869.53;367681;109;1961908;-71
2021/01/14 03:35:23;;;;;;;22.74;13.24;;;;;;;-1.46;68.15;97869.70;367066;107;1963928;-72
2021/01/14 03:36:32;;;;;;;21.57;13.52;;;;;;;-1.47;68.09;97871.52;364885;109;1962970;-71
2021/01/14 03:37:40;;;;;;;23.44;14.36;;;;;;;-1.46;68.22;97875.81;367057;109;1962012;-71
2021/01/14 03:38:46;;;;;;;25.32;14.41;;;;;;;-1.45;68.30;97872.19;370754;109;1961953;-73
2021/01/14 03:39:52;;;;;;;22.80;13.60;;;;;;;-1.43;68.16;97869.34;365563;109;1962046;-71
2021/01/14 03:40:58;;;;;;;20.45;13.19;;;;;;;-1.43;68.19;97872.84;341922;109;2510966;-71
2021/01/14 03:42:04;;;;;;;24.85;14.13;;;;;;;-1.43;68.30;97866.69;369787;109;1961966;-72
2021/01/14 03:43:10;;;;;;;29.09;15.77;;;;;;;-1.41;68.29;97868.17;365734;107;1961905;-72
2021/01/14 03:44:16;;;;;;;25.46;13.46;;;;;;;-1.38;68.32;97872.30;336597;108;2579951;-72
2021/01/14 03:45:21;;;;;;;23.67;13.48;;;;;;;-1.38;68.14;97862.52;353639;107;1961885;-71
2021/01/14 03:46:28;;;;;;;24.93;14.79;;;;;;;-1.37;68.04;97864.19;369989;109;1960969;-72
2021/01/14 03:47:34;;;;;;;22.42;13.67;;;;;;;-1.37;68.01;97864.19;355191;109;2299987;-72
2021/01/14 03:48:44;;;;;;;24.81;14.74;;;;;;;-1.37;67.92;97863.38;365430;109;1962051;-71
2021/01/14 03:49:49;;;;;;;25.15;14.86;;;;;;;-1.39;68.03;97862.72;368338;109;1965380;-71
2021/01/14 03:50:54;;;;;;;23.24;14.40;;;;;;;-1.39;68.07;97870.66;366337;109;1964269;-72
2021/01/14 03:52:00;;;;;;;25.30;15.18;;;;;;;-1.39;68.14;97866.18;370423;107;1961940;-72
2021/01/14 03:53:10;;;;;;;25.22;14.15;;;;;;;-1.38;68.18;97869.65;330803;107;2719945;31
2021/01/14 03:54:21;;;;;;;23.27;13.90;;;;;;;-1.37;68.23;97868.67;334116;111;1962029;-72
2021/01/14 03:55:25;;;;;;;26.96;15.44;;;;;;;-1.37;68.11;97866.84;359748;111;1964020;-72
2021/01/14 03:56:39;;;;;;;24.11;13.71;;;;;;;-1.36;68.10;97867.66;352054;114;1961024;-72
2021/01/14 03:57:44;;;;;;;23.86;14.14;;;;;;;-1.35;68.17;97869.30;322072;111;1979719;-73
2021/01/14 03:58:49;;;;;;;23.63;14.09;;;;;;;-1.33;68.18;97869.95;357046;111;1964931;-71
2021/01/14 03:59:54;;;;;;;24.42;15.11;;;;;;;-1.33;68.16;97868.13;352940;113;1962018;-71
2021/01/14 04:01:01;;;;;;;27.30;15.33;;;;;;;-1.33;68.21;97868.13;358085;111;1961988;-72
2021/01/14 04:02:07;;;;;;;25.14;14.63;;;;;;;-1.34;68.12;97868.31;331641;114;1961983;-71
2021/01/14 04:03:12;;;;;;;26.88;15.23;;;;;;;-1.33;68.19;97873.42;351943;115;1961845;-71
2021/01/14 04:04:17;;;;;;;24.82;14.59;;;;;;;-1.31;68.15;97872.44;346238;115;1961943;-72
2021/01/14 04:05:23;;;;;;;22.43;14.17;;;;;;;-1.29;68.17;97870.45;357504;112;1962968;-72
2021/01/14 04:06:35;;;;;;;25.62;15.52;;;;;;;-1.28;68.21;97864.96;355499;113;1962006;-72
2021/01/14 04:07:42;;;;;;;28.36;17.48;;;;;;;-1.27;68.17;97871.92;359018;112;1962055;-71
2021/01/14 04:08:48;;;;;;;26.44;15.66;;;;;;;-1.26;68.16;97865.62;321688;107;2123034;-71
2021/01/14 04:09:53;;;;;;;27.80;17.14;;;;;;;-1.25;68.10;97869.08;344208;118;1964041;-72
2021/01/14 04:10:59;;;;;;;29.84;16.97;;;;;;;-1.26;68.20;97870.91;355522;112;1960812;-72
2021/01/14 04:12:06;;;;;;;26.67;16.59;;;;;;;-1.24;68.13;97868.92;351564;112;1962957;-73
2021/01/14 04:13:11;;;;;;;26.62;17.05;;;;;;;-1.24;68.02;97866.27;344249;114;1961989;-72
2021/01/14 04:14:20;;;;;;;27.47;16.24;;;;;;;-1.25;68.11;97864.61;353583;112;1961896;-72
2021/01/14 04:15:24;;;;;;;30.89;18.41;;;;;;;-1.22;68.10;97863.43;324107;114;2214833;-73
2021/01/14 04:16:30;;;;;;;32.13;17.32;;;;;;;-1.22;68.04;97858.13;353486;114;1962041;-72
2021/01/14 04:17:35;;;;;;;30.51;17.28;;;;;;;-1.24;68.13;97853.03;352870;114;1961904;-72
2021/01/14 04:18:41;;;;;;;30.26;16.81;;;;;;;-1.22;68.06;97858.95;350685;114;1961003;-72
2021/01/14 04:19:47;;;;;;;31.49;17.06;;;;;;;-1.22;68.04;97850.19;342216;114;2212979;-72
2021/01/14 04:20:53;;;;;;;30.69;16.88;;;;;;;-1.20;67.98;97856.95;347860;114;1960855;-72
2021/01/14 04:21:58;;;;;;;32.06;19.51;;;;;;;-1.19;67.80;97858.63;353898;112;1960967;-72
2021/01/14 04:23:04;;;;;;;31.19;17.71;;;;;;;-1.17;67.66;97863.73;354926;112;1960892;-72
2021/01/14 04:24:10;;;;;;;33.94;18.86;;;;;;;-1.18;67.59;97865.56;318078;114;2230866;-72
2021/01/14 04:25:16;;;;;;;38.67;21.96;;;;;;;-1.16;67.62;97868.87;353846;114;1962896;-72
2021/01/14 04:26:23;;;;;;;37.94;21.59;;;;;;;-1.16;67.65;97868.05;321344;113;2013413;-72
2021/01/14 04:27:30;;;;;;;39.04;21.27;;;;;;;-1.16;67.73;97868.05;351205;112;1964053;-72
2021/01/14 04:28:39;;;;;;;38.24;22.28;;;;;;;-1.16;67.80;97866.22;351468;112;1961997;-72
2021/01/14 04:29:45;;;;;;;36.05;21.72;;;;;;;-1.16;67.82;97874.16;351413;114;1961905;-72
2021/01/14 04:30:52;;;;;;;34.48;21.99;;;;;;;-1.16;67.81;97873.34;354751;114;1961891;-70
2021/01/14 04:31:57;;;;;;;40.26;22.13;;;;;;;-1.14;67.79;97877.47;351373;114;1964364;-72
2021/01/14 04:33:13;;;;;;;40.66;25.91;;;;;;;-1.14;67.71;97871.32;359023;112;1961934;-72
2021/01/14 04:34:19;;;;;;;38.73;22.06;;;;;;;-1.15;67.80;97872.33;333794;110;2453046;-71
2021/01/14 04:35:52;;;;;;;40.62;22.14;;;;;;;-1.17;67.80;97872.50;337546;112;1961959;-72
2021/01/14 04:37:00;;;;;;;35.56;20.90;;;;;;;-1.19;67.88;97865.72;339242;113;1961958;-72
2021/01/14 04:38:06;;;;;;;38.67;22.22;;;;;;;-1.20;67.98;97867.55;358236;111;1962906;-72
2021/01/14 04:39:11;;;;;;;42.67;23.50;;;;;;;-1.19;68.04;97878.97;340909;112;2362964;-72
2021/01/14 04:40:18;;;;;;;39.52;22.77;;;;;;;-1.19;67.99;97869.22;356999;111;1961925;-72
2021/01/14 04:41:23;;;;;;;39.34;23.46;;;;;;;-1.19;68.01;97868.38;355260;111;1961904;-72
2021/01/14 04:42:35;;;;;;;39.51;21.40;;;;;;;-1.18;68.02;97864.74;355615;113;1962976;-72
2021/01/14 04:43:41;;;;;;;37.91;22.54;;;;;;;-1.17;68.00;97872.50;351217;115;1961987;-72
2021/01/14 04:44:48;;;;;;;40.60;22.66;;;;;;;-1.17;68.07;97874.33;357135;113;1964032;-72
2021/01/14 04:45:55;;;;;;;39.92;23.78;;;;;;;-1.16;68.14;97874.16;314021;111;2204132;-72
2021/01/14 04:47:13;;;;;;;39.32;23.23;;;;;;;-1.16;68.11;97876.81;358190;111;1961940;-73
2021/01/14 04:48:21;;;;;;;39.59;23.07;;;;;;;-1.15;68.21;97878.45;358842;113;1962031;-72
2021/01/14 04:49:30;;;;;;;41.29;23.01;;;;;;;-1.15;68.22;97874.98;352328;115;1960833;-71
2021/01/14 04:50:37;;;;;;;38.14;22.48;;;;;;;-1.14;68.23;97876.63;338502;111;1962937;-71
2021/01/14 04:51:45;;;;;;;39.91;23.34;;;;;;;-1.14;68.15;97874.82;354230;113;1961940;-72
2021/01/14 04:52:54;;;;;;;42.58;25.21;;;;;;;-1.14;68.21;97872.17;357682;113;1963926;-72
2021/01/14 04:54:04;;;;;;;41.74;24.59;;;;;;;-1.14;68.36;97877.47;351428;113;1961970;-72
2021/01/14 04:55:15;;;;;;;39.46;22.86;;;;;;;-1.14;68.45;97871.32;357404;109;1962021;-72
2021/01/14 04:56:24;;;;;;;42.46;24.37;;;;;;;-1.15;68.45;97878.45;359055;111;1962975;-72
2021/01/14 04:57:34;;;;;;;44.44;25.48;;;;;;;-1.15;68.50;97881.10;358274;111;1963004;-71
2021/01/14 04:58:41;;;;;;;44.55;26.15;;;;;;;-1.14;68.67;97879.27;353471;113;1962092;-72
2021/01/14 04:59:52;;;;;;;43.28;25.26;;;;;;;-1.14;68.65;97872.17;356072;111;1961990;-72
2021/01/14 05:01:06;;;;;;;42.86;24.06;;;;;;;-1.13;68.61;97876.45;351898;113;1962050;-71
2021/01/14 05:02:16;;;;;;;41.73;24.78;;;;;;;-1.12;68.62;97870.15;352466;113;1961989;-71
2021/01/14 05:03:24;;;;;;;40.80;23.89;;;;;;;-1.11;68.69;97871.00;358249;111;1962028;-71